sensor_id;sensor_type;location;lat;lon;timestamp;P1;durP1;ratioP1;P2;durP2;ratioP2
4754;SDS011;2391;47.212;7.542;2024-03-02T00:00:04;4.60;;;3.00;;
4754;SDS011;2391;47.212;7.542;2024-03-02T00:02:33;2.87;;;2.67;;
4754;SDS011;2391;47.212;7.542;2024-03-02T00:04:59;2.93;;;2.73;;
4754;SDS011;2391;47.212;7.542;2024-03-02T00:07:25;2.77;;;2.57;;
4754;SDS011;2391;47.212;7.542;2024-03-02T00:09:52;3.00;;;2.80;;
4754;SDS011;2391;47.212;7.542;2024-03-02T00:12:19;3.00;;;2.60;;
4754;SDS011;2391;47.212;7.542;2024-03-02T00:14:46;3.50;;;3.20;;
4754;SDS011;2391;47.212;7.542;2024-03-02T00:17:15;2.87;;;2.57;;
4754;SDS011;2391;47.212;7.542;2024-03-02T00:19:41;4.50;;;3.10;;
4754;SDS011;2391;47.212;7.542;2024-03-02T00:22:07;3.13;;;2.80;;
4754;SDS011;2391;47.212;7.542;2024-03-02T00:24:34;3.80;;;3.43;;
4754;SDS011;2391;47.212;7.542;2024-03-02T00:27:01;3.50;;;3.20;;
4754;SDS011;2391;47.212;7.542;2024-03-02T00:29:29;3.53;;;3.23;;
4754;SDS011;2391;47.212;7.542;2024-03-02T00:31:55;3.40;;;3.07;;
4754;SDS011;2391;47.212;7.542;2024-03-02T00:34:21;3.20;;;2.90;;
4754;SDS011;2391;47.212;7.542;2024-03-02T00:36:47;3.10;;;2.80;;
4754;SDS011;2391;47.212;7.542;2024-03-02T00:39:17;3.67;;;3.37;;
4754;SDS011;2391;47.212;7.542;2024-03-02T00:41:43;4.17;;;3.17;;
4754;SDS011;2391;47.212;7.542;2024-03-02T00:44:09;3.87;;;3.10;;
4754;SDS011;2391;47.212;7.542;2024-03-02T00:46:41;2.77;;;2.57;;
4754;SDS011;2391;47.212;7.542;2024-03-02T00:49:20;3.27;;;2.90;;
4754;SDS011;2391;47.212;7.542;2024-03-02T00:51:50;2.67;;;2.47;;
4754;SDS011;2391;47.212;7.542;2024-03-02T00:54:25;2.87;;;2.67;;
4754;SDS011;2391;47.212;7.542;2024-03-02T00:56:56;2.57;;;2.37;;
4754;SDS011;2391;47.212;7.542;2024-03-02T00:59:21;4.30;;;2.77;;
4754;SDS011;2391;47.212;7.542;2024-03-02T01:01:48;3.47;;;2.90;;
4754;SDS011;2391;47.212;7.542;2024-03-02T01:04:15;3.30;;;2.67;;
4754;SDS011;2391;47.212;7.542;2024-03-02T01:06:44;3.30;;;3.00;;
4754;SDS011;2391;47.212;7.542;2024-03-02T01:09:11;2.90;;;2.60;;
4754;SDS011;2391;47.212;7.542;2024-03-02T01:11:37;5.53;;;2.87;;
4754;SDS011;2391;47.212;7.542;2024-03-02T01:14:03;2.80;;;2.63;;
4754;SDS011;2391;47.212;7.542;2024-03-02T01:16:30;3.00;;;2.70;;
4754;SDS011;2391;47.212;7.542;2024-03-02T01:18:55;2.93;;;2.77;;
4754;SDS011;2391;47.212;7.542;2024-03-02T01:21:21;2.53;;;2.33;;
4754;SDS011;2391;47.212;7.542;2024-03-02T01:23:47;3.53;;;2.60;;
4754;SDS011;2391;47.212;7.542;2024-03-02T01:26:13;2.97;;;2.77;;
4754;SDS011;2391;47.212;7.542;2024-03-02T01:28:39;3.40;;;2.80;;
4754;SDS011;2391;47.212;7.542;2024-03-02T01:31:05;3.23;;;2.80;;
4754;SDS011;2391;47.212;7.542;2024-03-02T01:33:31;3.73;;;2.63;;
4754;SDS011;2391;47.212;7.542;2024-03-02T01:35:57;2.70;;;2.50;;
4754;SDS011;2391;47.212;7.542;2024-03-02T01:38:22;4.00;;;3.37;;
4754;SDS011;2391;47.212;7.542;2024-03-02T01:40:48;2.60;;;2.40;;
4754;SDS011;2391;47.212;7.542;2024-03-02T01:43:14;3.13;;;2.67;;
4754;SDS011;2391;47.212;7.542;2024-03-02T01:45:40;2.73;;;2.53;;
4754;SDS011;2391;47.212;7.542;2024-03-02T01:48:06;2.60;;;2.50;;
4754;SDS011;2391;47.212;7.542;2024-03-02T01:50:32;2.70;;;2.50;;
4754;SDS011;2391;47.212;7.542;2024-03-02T01:52:59;2.60;;;2.43;;
4754;SDS011;2391;47.212;7.542;2024-03-02T01:55:26;2.90;;;2.60;;
4754;SDS011;2391;47.212;7.542;2024-03-02T01:57:54;3.23;;;2.93;;
4754;SDS011;2391;47.212;7.542;2024-03-02T02:00:20;3.07;;;2.60;;
4754;SDS011;2391;47.212;7.542;2024-03-02T02:02:46;2.93;;;2.73;;
4754;SDS011;2391;47.212;7.542;2024-03-02T02:05:13;3.20;;;3.00;;
4754;SDS011;2391;47.212;7.542;2024-03-02T02:07:40;3.77;;;3.47;;
4754;SDS011;2391;47.212;7.542;2024-03-02T02:10:07;5.03;;;4.50;;
4754;SDS011;2391;47.212;7.542;2024-03-02T02:12:36;3.20;;;2.90;;
4754;SDS011;2391;47.212;7.542;2024-03-02T02:15:02;3.37;;;3.07;;
4754;SDS011;2391;47.212;7.542;2024-03-02T02:17:29;3.50;;;3.17;;
4754;SDS011;2391;47.212;7.542;2024-03-02T02:19:55;4.70;;;2.90;;
4754;SDS011;2391;47.212;7.542;2024-03-02T02:22:21;3.57;;;3.00;;
4754;SDS011;2391;47.212;7.542;2024-03-02T02:24:46;4.70;;;3.17;;
4754;SDS011;2391;47.212;7.542;2024-03-02T02:27:12;3.27;;;2.97;;
4754;SDS011;2391;47.212;7.542;2024-03-02T02:29:40;3.33;;;3.00;;
4754;SDS011;2391;47.212;7.542;2024-03-02T02:32:07;3.37;;;3.10;;
4754;SDS011;2391;47.212;7.542;2024-03-02T02:34:33;3.87;;;2.77;;
4754;SDS011;2391;47.212;7.542;2024-03-02T02:36:59;3.40;;;2.90;;
4754;SDS011;2391;47.212;7.542;2024-03-02T02:39:25;3.57;;;3.10;;
4754;SDS011;2391;47.212;7.542;2024-03-02T02:41:51;2.80;;;2.60;;
4754;SDS011;2391;47.212;7.542;2024-03-02T02:44:18;3.13;;;2.93;;
4754;SDS011;2391;47.212;7.542;2024-03-02T02:46:47;4.27;;;2.77;;
4754;SDS011;2391;47.212;7.542;2024-03-02T02:49:13;4.47;;;3.37;;
4754;SDS011;2391;47.212;7.542;2024-03-02T02:51:39;3.30;;;2.33;;
4754;SDS011;2391;47.212;7.542;2024-03-02T02:54:04;3.10;;;2.80;;
4754;SDS011;2391;47.212;7.542;2024-03-02T02:56:30;3.20;;;2.83;;
4754;SDS011;2391;47.212;7.542;2024-03-02T02:58:56;3.37;;;2.93;;
4754;SDS011;2391;47.212;7.542;2024-03-02T03:01:22;2.87;;;2.67;;
4754;SDS011;2391;47.212;7.542;2024-03-02T03:03:48;3.80;;;3.20;;
4754;SDS011;2391;47.212;7.542;2024-03-02T03:06:13;3.13;;;2.93;;
4754;SDS011;2391;47.212;7.542;2024-03-02T03:08:39;3.27;;;2.73;;
4754;SDS011;2391;47.212;7.542;2024-03-02T03:11:05;3.20;;;2.90;;
4754;SDS011;2391;47.212;7.542;2024-03-02T03:13:34;4.30;;;2.97;;
4754;SDS011;2391;47.212;7.542;2024-03-02T03:16:00;2.90;;;2.70;;
4754;SDS011;2391;47.212;7.542;2024-03-02T03:18:25;3.07;;;2.73;;
4754;SDS011;2391;47.212;7.542;2024-03-02T03:20:51;5.63;;;3.07;;
4754;SDS011;2391;47.212;7.542;2024-03-02T03:23:17;4.13;;;2.97;;
4754;SDS011;2391;47.212;7.542;2024-03-02T03:25:43;3.07;;;2.87;;
4754;SDS011;2391;47.212;7.542;2024-03-02T03:28:09;3.67;;;3.30;;
4754;SDS011;2391;47.212;7.542;2024-03-02T03:30:38;5.53;;;4.60;;
4754;SDS011;2391;47.212;7.542;2024-03-02T03:33:04;4.90;;;4.40;;
4754;SDS011;2391;47.212;7.542;2024-03-02T03:35:31;4.70;;;4.07;;
4754;SDS011;2391;47.212;7.542;2024-03-02T03:37:58;4.03;;;3.70;;
4754;SDS011;2391;47.212;7.542;2024-03-02T03:40:24;4.97;;;4.47;;
4754;SDS011;2391;47.212;7.542;2024-03-02T03:42:49;4.57;;;4.13;;
4754;SDS011;2391;47.212;7.542;2024-03-02T03:45:15;7.63;;;5.40;;
4754;SDS011;2391;47.212;7.542;2024-03-02T03:47:41;6.90;;;5.03;;
4754;SDS011;2391;47.212;7.542;2024-03-02T03:50:09;5.00;;;4.40;;
4754;SDS011;2391;47.212;7.542;2024-03-02T03:52:35;11.03;;;5.80;;
4754;SDS011;2391;47.212;7.542;2024-03-02T03:55:01;4.70;;;4.10;;
4754;SDS011;2391;47.212;7.542;2024-03-02T03:57:27;5.43;;;4.90;;
4754;SDS011;2391;47.212;7.542;2024-03-02T03:59:55;7.50;;;5.10;;
4754;SDS011;2391;47.212;7.542;2024-03-02T04:02:21;6.00;;;4.43;;
4754;SDS011;2391;47.212;7.542;2024-03-02T04:04:46;6.10;;;5.13;;
4754;SDS011;2391;47.212;7.542;2024-03-02T04:07:12;6.77;;;5.30;;
4754;SDS011;2391;47.212;7.542;2024-03-02T04:09:38;6.90;;;5.00;;
4754;SDS011;2391;47.212;7.542;2024-03-02T04:12:04;6.90;;;4.93;;
4754;SDS011;2391;47.212;7.542;2024-03-02T04:14:30;5.17;;;4.20;;
4754;SDS011;2391;47.212;7.542;2024-03-02T04:16:55;4.83;;;4.40;;
4754;SDS011;2391;47.212;7.542;2024-03-02T04:19:21;8.07;;;5.00;;
4754;SDS011;2391;47.212;7.542;2024-03-02T04:21:47;4.70;;;4.17;;
4754;SDS011;2391;47.212;7.542;2024-03-02T04:24:13;5.13;;;4.73;;
4754;SDS011;2391;47.212;7.542;2024-03-02T04:26:38;5.20;;;4.70;;
4754;SDS011;2391;47.212;7.542;2024-03-02T04:29:04;7.87;;;4.87;;
4754;SDS011;2391;47.212;7.542;2024-03-02T04:31:30;4.87;;;4.47;;
4754;SDS011;2391;47.212;7.542;2024-03-02T04:33:56;5.80;;;4.83;;
4754;SDS011;2391;47.212;7.542;2024-03-02T04:36:23;5.80;;;5.20;;
4754;SDS011;2391;47.212;7.542;2024-03-02T04:38:49;7.73;;;4.83;;
4754;SDS011;2391;47.212;7.542;2024-03-02T04:41:15;6.77;;;5.50;;
4754;SDS011;2391;47.212;7.542;2024-03-02T04:43:41;8.10;;;5.73;;
4754;SDS011;2391;47.212;7.542;2024-03-02T04:46:06;7.03;;;5.50;;
4754;SDS011;2391;47.212;7.542;2024-03-02T04:48:33;7.33;;;5.33;;
4754;SDS011;2391;47.212;7.542;2024-03-02T04:50:59;8.23;;;5.40;;
4754;SDS011;2391;47.212;7.542;2024-03-02T04:53:25;5.93;;;5.10;;
4754;SDS011;2391;47.212;7.542;2024-03-02T04:55:51;6.50;;;5.50;;
4754;SDS011;2391;47.212;7.542;2024-03-02T04:58:35;6.37;;;5.07;;
4754;SDS011;2391;47.212;7.542;2024-03-02T05:01:01;5.60;;;4.83;;
4754;SDS011;2391;47.212;7.542;2024-03-02T05:03:27;5.17;;;4.67;;
4754;SDS011;2391;47.212;7.542;2024-03-02T05:05:52;5.70;;;4.93;;
4754;SDS011;2391;47.212;7.542;2024-03-02T05:08:18;5.33;;;4.83;;
4754;SDS011;2391;47.212;7.542;2024-03-02T05:10:44;5.83;;;4.60;;
4754;SDS011;2391;47.212;7.542;2024-03-02T05:13:10;7.47;;;5.40;;
4754;SDS011;2391;47.212;7.542;2024-03-02T05:15:36;5.90;;;4.90;;
4754;SDS011;2391;47.212;7.542;2024-03-02T05:18:02;7.00;;;5.80;;
4754;SDS011;2391;47.212;7.542;2024-03-02T05:20:30;8.13;;;5.70;;
4754;SDS011;2391;47.212;7.542;2024-03-02T05:22:55;8.10;;;5.33;;
4754;SDS011;2391;47.212;7.542;2024-03-02T05:25:21;6.97;;;5.47;;
4754;SDS011;2391;47.212;7.542;2024-03-02T05:27:47;6.97;;;5.40;;
4754;SDS011;2391;47.212;7.542;2024-03-02T05:30:13;7.97;;;5.93;;
4754;SDS011;2391;47.212;7.542;2024-03-02T05:32:39;6.03;;;5.20;;
4754;SDS011;2391;47.212;7.542;2024-03-02T05:35:05;6.53;;;5.23;;
4754;SDS011;2391;47.212;7.542;2024-03-02T05:37:31;4.57;;;4.17;;
4754;SDS011;2391;47.212;7.542;2024-03-02T05:39:57;4.30;;;3.87;;
4754;SDS011;2391;47.212;7.542;2024-03-02T05:42:24;5.10;;;4.43;;
4754;SDS011;2391;47.212;7.542;2024-03-02T05:44:50;7.13;;;4.60;;
4754;SDS011;2391;47.212;7.542;2024-03-02T05:47:16;6.80;;;4.43;;
4754;SDS011;2391;47.212;7.542;2024-03-02T05:49:42;5.40;;;4.60;;
4754;SDS011;2391;47.212;7.542;2024-03-02T05:52:08;4.57;;;4.07;;
4754;SDS011;2391;47.212;7.542;2024-03-02T05:54:34;5.00;;;4.60;;
4754;SDS011;2391;47.212;7.542;2024-03-02T05:57:00;5.07;;;4.23;;
4754;SDS011;2391;47.212;7.542;2024-03-02T05:59:27;5.13;;;4.63;;
4754;SDS011;2391;47.212;7.542;2024-03-02T06:01:53;4.90;;;4.00;;
4754;SDS011;2391;47.212;7.542;2024-03-02T06:04:19;4.80;;;4.40;;
4754;SDS011;2391;47.212;7.542;2024-03-02T06:06:45;4.20;;;3.80;;
4754;SDS011;2391;47.212;7.542;2024-03-02T06:09:11;3.60;;;3.40;;
4754;SDS011;2391;47.212;7.542;2024-03-02T06:11:41;3.37;;;3.17;;
4754;SDS011;2391;47.212;7.542;2024-03-02T06:14:07;3.63;;;3.33;;
4754;SDS011;2391;47.212;7.542;2024-03-02T06:16:34;4.67;;;4.27;;
4754;SDS011;2391;47.212;7.542;2024-03-02T06:19:00;5.40;;;4.03;;
4754;SDS011;2391;47.212;7.542;2024-03-02T06:21:27;5.23;;;3.70;;
4754;SDS011;2391;47.212;7.542;2024-03-02T06:23:53;5.87;;;5.28;;
4754;SDS011;2391;47.212;7.542;2024-03-02T06:26:19;5.67;;;4.97;;
4754;SDS011;2391;47.212;7.542;2024-03-02T06:28:46;4.90;;;3.97;;
4754;SDS011;2391;47.212;7.542;2024-03-02T06:31:12;4.87;;;4.23;;
4754;SDS011;2391;47.212;7.542;2024-03-02T06:33:38;4.83;;;4.30;;
4754;SDS011;2391;47.212;7.542;2024-03-02T06:36:04;4.73;;;4.33;;
4754;SDS011;2391;47.212;7.542;2024-03-02T06:38:32;4.27;;;3.87;;
4754;SDS011;2391;47.212;7.542;2024-03-02T06:40:58;4.20;;;3.20;;
4754;SDS011;2391;47.212;7.542;2024-03-02T06:43:24;4.83;;;3.90;;
4754;SDS011;2391;47.212;7.542;2024-03-02T06:45:50;4.23;;;3.80;;
4754;SDS011;2391;47.212;7.542;2024-03-02T06:48:17;9.07;;;3.80;;
4754;SDS011;2391;47.212;7.542;2024-03-02T06:50:50;4.03;;;3.57;;
4754;SDS011;2391;47.212;7.542;2024-03-02T06:53:13;4.27;;;3.77;;
4754;SDS011;2391;47.212;7.542;2024-03-02T06:55:39;4.23;;;3.83;;
4754;SDS011;2391;47.212;7.542;2024-03-02T06:58:05;4.03;;;3.73;;
4754;SDS011;2391;47.212;7.542;2024-03-02T07:00:31;6.20;;;4.57;;
4754;SDS011;2391;47.212;7.542;2024-03-02T07:02:57;4.20;;;3.90;;
4754;SDS011;2391;47.212;7.542;2024-03-02T07:05:24;4.70;;;3.87;;
4754;SDS011;2391;47.212;7.542;2024-03-02T07:07:49;5.23;;;4.27;;
4754;SDS011;2391;47.212;7.542;2024-03-02T07:10:15;3.90;;;3.60;;
4754;SDS011;2391;47.212;7.542;2024-03-02T07:12:41;4.27;;;3.87;;
4754;SDS011;2391;47.212;7.542;2024-03-02T07:15:07;4.30;;;4.00;;
4754;SDS011;2391;47.212;7.542;2024-03-02T07:17:35;4.63;;;4.07;;
4754;SDS011;2391;47.212;7.542;2024-03-02T07:20:02;4.63;;;4.23;;
4754;SDS011;2391;47.212;7.542;2024-03-02T07:22:29;4.40;;;3.67;;
4754;SDS011;2391;47.212;7.542;2024-03-02T07:24:55;5.93;;;4.07;;
4754;SDS011;2391;47.212;7.542;2024-03-02T07:27:21;4.20;;;3.90;;
4754;SDS011;2391;47.212;7.542;2024-03-02T07:29:47;5.30;;;4.20;;
4754;SDS011;2391;47.212;7.542;2024-03-02T07:32:13;4.77;;;4.37;;
4754;SDS011;2391;47.212;7.542;2024-03-02T07:34:38;4.70;;;4.27;;
4754;SDS011;2391;47.212;7.542;2024-03-02T07:37:04;4.70;;;4.30;;
4754;SDS011;2391;47.212;7.542;2024-03-02T07:39:31;6.30;;;4.30;;
4754;SDS011;2391;47.212;7.542;2024-03-02T07:41:57;3.60;;;3.40;;
4754;SDS011;2391;47.212;7.542;2024-03-02T07:44:23;3.90;;;3.60;;
4754;SDS011;2391;47.212;7.542;2024-03-02T07:46:49;4.87;;;4.03;;
4754;SDS011;2391;47.212;7.542;2024-03-02T07:49:15;5.13;;;4.47;;
4754;SDS011;2391;47.212;7.542;2024-03-02T07:51:42;6.77;;;4.50;;
4754;SDS011;2391;47.212;7.542;2024-03-02T07:54:08;5.60;;;5.00;;
4754;SDS011;2391;47.212;7.542;2024-03-02T07:56:35;7.20;;;5.13;;
4754;SDS011;2391;47.212;7.542;2024-03-02T07:59:01;4.73;;;4.30;;
4754;SDS011;2391;47.212;7.542;2024-03-02T08:01:28;5.10;;;4.70;;
4754;SDS011;2391;47.212;7.542;2024-03-02T08:03:56;5.73;;;4.80;;
4754;SDS011;2391;47.212;7.542;2024-03-02T08:06:27;9.03;;;4.90;;
4754;SDS011;2391;47.212;7.542;2024-03-02T08:08:54;4.07;;;3.50;;
4754;SDS011;2391;47.212;7.542;2024-03-02T08:11:20;4.80;;;4.20;;
4754;SDS011;2391;47.212;7.542;2024-03-02T08:13:47;4.27;;;3.87;;
4754;SDS011;2391;47.212;7.542;2024-03-02T08:16:14;3.30;;;3.10;;
4754;SDS011;2391;47.212;7.542;2024-03-02T08:18:40;6.23;;;3.67;;
4754;SDS011;2391;47.212;7.542;2024-03-02T08:21:07;3.30;;;3.00;;
4754;SDS011;2391;47.212;7.542;2024-03-02T08:23:34;3.77;;;3.47;;
4754;SDS011;2391;47.212;7.542;2024-03-02T08:26:00;3.37;;;3.07;;
4754;SDS011;2391;47.212;7.542;2024-03-02T08:28:26;3.00;;;2.80;;
4754;SDS011;2391;47.212;7.542;2024-03-02T08:30:52;2.70;;;2.60;;
4754;SDS011;2391;47.212;7.542;2024-03-02T08:33:18;3.00;;;2.63;;
4754;SDS011;2391;47.212;7.542;2024-03-02T08:35:44;3.30;;;3.00;;
4754;SDS011;2391;47.212;7.542;2024-03-02T08:38:10;2.60;;;2.50;;
4754;SDS011;2391;47.212;7.542;2024-03-02T08:40:36;2.93;;;2.73;;
4754;SDS011;2391;47.212;7.542;2024-03-02T08:43:01;3.40;;;3.10;;
4754;SDS011;2391;47.212;7.542;2024-03-02T08:45:27;4.07;;;3.50;;
4754;SDS011;2391;47.212;7.542;2024-03-02T08:47:53;3.25;;;3.05;;
4754;SDS011;2391;47.212;7.542;2024-03-02T08:50:19;3.30;;;3.00;;
4754;SDS011;2391;47.212;7.542;2024-03-02T08:52:45;7.27;;;3.17;;
4754;SDS011;2391;47.212;7.542;2024-03-02T08:55:11;3.87;;;3.57;;
4754;SDS011;2391;47.212;7.542;2024-03-02T08:57:37;4.53;;;4.13;;
4754;SDS011;2391;47.212;7.542;2024-03-02T09:00:03;4.70;;;4.10;;
4754;SDS011;2391;47.212;7.542;2024-03-02T09:02:30;5.40;;;4.20;;
4754;SDS011;2391;47.212;7.542;2024-03-02T09:04:57;6.37;;;4.77;;
4754;SDS011;2391;47.212;7.542;2024-03-02T09:07:23;5.90;;;4.77;;
4754;SDS011;2391;47.212;7.542;2024-03-02T09:09:49;5.13;;;4.70;;
4754;SDS011;2391;47.212;7.542;2024-03-02T09:12:15;6.20;;;5.47;;
4754;SDS011;2391;47.212;7.542;2024-03-02T09:14:41;7.80;;;5.33;;
4754;SDS011;2391;47.212;7.542;2024-03-02T09:17:06;5.70;;;4.93;;
4754;SDS011;2391;47.212;7.542;2024-03-02T09:19:36;6.37;;;5.30;;
4754;SDS011;2391;47.212;7.542;2024-03-02T09:22:03;6.60;;;5.10;;
4754;SDS011;2391;47.212;7.542;2024-03-02T09:24:33;6.00;;;4.70;;
4754;SDS011;2391;47.212;7.542;2024-03-02T09:26:59;5.50;;;4.30;;
4754;SDS011;2391;47.212;7.542;2024-03-02T09:29:25;4.87;;;4.37;;
4754;SDS011;2391;47.212;7.542;2024-03-02T09:31:51;5.63;;;3.40;;
4754;SDS011;2391;47.212;7.542;2024-03-02T09:34:17;3.73;;;3.47;;
4754;SDS011;2391;47.212;7.542;2024-03-02T09:36:43;5.67;;;4.77;;
4754;SDS011;2391;47.212;7.542;2024-03-02T09:39:09;5.80;;;5.10;;
4754;SDS011;2391;47.212;7.542;2024-03-02T09:41:36;5.50;;;5.00;;
4754;SDS011;2391;47.212;7.542;2024-03-02T09:44:02;6.10;;;4.93;;
4754;SDS011;2391;47.212;7.542;2024-03-02T09:46:29;6.13;;;5.17;;
4754;SDS011;2391;47.212;7.542;2024-03-02T09:48:58;8.63;;;5.37;;
4754;SDS011;2391;47.212;7.542;2024-03-02T09:51:24;6.33;;;5.10;;
4754;SDS011;2391;47.212;7.542;2024-03-02T09:53:51;7.67;;;6.17;;
4754;SDS011;2391;47.212;7.542;2024-03-02T09:56:17;6.67;;;5.80;;
4754;SDS011;2391;47.212;7.542;2024-03-02T09:58:44;6.90;;;5.63;;
4754;SDS011;2391;47.212;7.542;2024-03-02T10:01:10;7.50;;;6.07;;
4754;SDS011;2391;47.212;7.542;2024-03-02T10:03:39;6.33;;;5.73;;
4754;SDS011;2391;47.212;7.542;2024-03-02T10:06:22;7.13;;;5.63;;
4754;SDS011;2391;47.212;7.542;2024-03-02T10:08:48;5.93;;;4.83;;
4754;SDS011;2391;47.212;7.542;2024-03-02T10:11:28;5.67;;;4.93;;
4754;SDS011;2391;47.212;7.542;2024-03-02T10:16:42;6.23;;;4.47;;
4754;SDS011;2391;47.212;7.542;2024-03-02T10:19:19;5.87;;;5.27;;
4754;SDS011;2391;47.212;7.542;2024-03-02T10:21:43;7.00;;;5.30;;
4754;SDS011;2391;47.212;7.542;2024-03-02T10:24:11;6.07;;;4.70;;
4754;SDS011;2391;47.212;7.542;2024-03-02T10:26:38;4.57;;;4.17;;
4754;SDS011;2391;47.212;7.542;2024-03-02T10:29:04;5.10;;;4.60;;
4754;SDS011;2391;47.212;7.542;2024-03-02T10:31:30;5.30;;;4.80;;
4754;SDS011;2391;47.212;7.542;2024-03-02T10:33:57;6.70;;;4.67;;
4754;SDS011;2391;47.212;7.542;2024-03-02T10:36:23;4.70;;;3.83;;
4754;SDS011;2391;47.212;7.542;2024-03-02T10:38:55;7.73;;;4.90;;
4754;SDS011;2391;47.212;7.542;2024-03-02T10:41:23;5.97;;;4.50;;
4754;SDS011;2391;47.212;7.542;2024-03-02T10:43:52;4.83;;;4.10;;
4754;SDS011;2391;47.212;7.542;2024-03-02T10:46:20;3.77;;;3.47;;
4754;SDS011;2391;47.212;7.542;2024-03-02T10:48:48;4.07;;;3.43;;
4754;SDS011;2391;47.212;7.542;2024-03-02T10:51:14;4.27;;;3.87;;
4754;SDS011;2391;47.212;7.542;2024-03-02T10:53:40;3.93;;;3.07;;
4754;SDS011;2391;47.212;7.542;2024-03-02T10:56:07;3.60;;;2.83;;
4754;SDS011;2391;47.212;7.542;2024-03-02T10:58:34;2.10;;;1.90;;
4754;SDS011;2391;47.212;7.542;2024-03-02T11:01:03;3.07;;;2.57;;
4754;SDS011;2391;47.212;7.542;2024-03-02T11:03:29;1.43;;;1.33;;
4754;SDS011;2391;47.212;7.542;2024-03-02T11:05:58;1.03;;;1.03;;
4754;SDS011;2391;47.212;7.542;2024-03-02T11:08:26;1.70;;;1.50;;
4754;SDS011;2391;47.212;7.542;2024-03-02T11:10:57;3.27;;;1.40;;
4754;SDS011;2391;47.212;7.542;2024-03-02T11:13:34;5.33;;;1.60;;
4754;SDS011;2391;47.212;7.542;2024-03-02T11:16:24;2.60;;;1.40;;
4754;SDS011;2391;47.212;7.542;2024-03-02T11:18:31;1.60;;;1.50;;
4754;SDS011;2391;47.212;7.542;2024-03-02T11:20:58;1.57;;;1.47;;
4754;SDS011;2391;47.212;7.542;2024-03-02T11:23:34;1.50;;;1.40;;
4754;SDS011;2391;47.212;7.542;2024-03-02T11:28:45;1.47;;;1.37;;
4754;SDS011;2391;47.212;7.542;2024-03-02T11:31:11;1.60;;;1.50;;
4754;SDS011;2391;47.212;7.542;2024-03-02T11:33:37;1.00;;;1.00;;
4754;SDS011;2391;47.212;7.542;2024-03-02T11:36:03;1.63;;;1.13;;
4754;SDS011;2391;47.212;7.542;2024-03-02T11:38:33;0.83;;;0.83;;
4754;SDS011;2391;47.212;7.542;2024-03-02T11:41:01;0.83;;;0.83;;
4754;SDS011;2391;47.212;7.542;2024-03-02T11:43:29;1.40;;;1.30;;
4754;SDS011;2391;47.212;7.542;2024-03-02T11:45:58;2.20;;;1.00;;
4754;SDS011;2391;47.212;7.542;2024-03-02T11:48:26;1.47;;;1.00;;
4754;SDS011;2391;47.212;7.542;2024-03-02T11:50:52;1.00;;;1.00;;
4754;SDS011;2391;47.212;7.542;2024-03-02T11:53:19;1.33;;;1.23;;
4754;SDS011;2391;47.212;7.542;2024-03-02T11:55:46;0.80;;;0.80;;
4754;SDS011;2391;47.212;7.542;2024-03-02T11:58:17;1.47;;;1.03;;
4754;SDS011;2391;47.212;7.542;2024-03-02T12:00:43;3.00;;;1.03;;
4754;SDS011;2391;47.212;7.542;2024-03-02T12:03:12;1.10;;;1.00;;
4754;SDS011;2391;47.212;7.542;2024-03-02T12:05:38;0.97;;;0.97;;
4754;SDS011;2391;47.212;7.542;2024-03-02T12:08:05;0.80;;;0.80;;
4754;SDS011;2391;47.212;7.542;2024-03-02T12:10:33;1.33;;;0.97;;
4754;SDS011;2391;47.212;7.542;2024-03-02T12:13:01;0.70;;;0.70;;
4754;SDS011;2391;47.212;7.542;2024-03-02T12:15:31;1.00;;;1.00;;
4754;SDS011;2391;47.212;7.542;2024-03-02T12:17:59;0.80;;;0.80;;
4754;SDS011;2391;47.212;7.542;2024-03-02T12:20:27;0.80;;;0.80;;
4754;SDS011;2391;47.212;7.542;2024-03-02T12:22:55;1.73;;;1.10;;
4754;SDS011;2391;47.212;7.542;2024-03-02T12:25:24;0.90;;;0.90;;
4754;SDS011;2391;47.212;7.542;2024-03-02T12:27:51;0.70;;;0.70;;
4754;SDS011;2391;47.212;7.542;2024-03-02T12:30:19;1.03;;;1.03;;
4754;SDS011;2391;47.212;7.542;2024-03-02T12:32:46;1.00;;;1.00;;
4754;SDS011;2391;47.212;7.542;2024-03-02T12:35:13;0.97;;;0.87;;
4754;SDS011;2391;47.212;7.542;2024-03-02T12:37:51;0.80;;;0.80;;
4754;SDS011;2391;47.212;7.542;2024-03-02T12:40:15;0.70;;;0.70;;
4754;SDS011;2391;47.212;7.542;2024-03-02T12:42:56;3.30;;;1.00;;
4754;SDS011;2391;47.212;7.542;2024-03-02T12:45:12;0.80;;;0.80;;
4754;SDS011;2391;47.212;7.542;2024-03-02T12:47:39;0.87;;;0.87;;
4754;SDS011;2391;47.212;7.542;2024-03-02T12:50:06;0.87;;;0.87;;
4754;SDS011;2391;47.212;7.542;2024-03-02T12:52:33;0.90;;;0.90;;
4754;SDS011;2391;47.212;7.542;2024-03-02T12:55:00;1.53;;;0.83;;
4754;SDS011;2391;47.212;7.542;2024-03-02T12:57:29;1.93;;;0.90;;
4754;SDS011;2391;47.212;7.542;2024-03-02T12:59:59;1.23;;;1.00;;
4754;SDS011;2391;47.212;7.542;2024-03-02T13:02:29;1.37;;;0.90;;
4754;SDS011;2391;47.212;7.542;2024-03-02T13:04:57;0.73;;;0.70;;
4754;SDS011;2391;47.212;7.542;2024-03-02T13:07:24;0.80;;;0.80;;
4754;SDS011;2391;47.212;7.542;2024-03-02T13:09:51;0.63;;;0.63;;
4754;SDS011;2391;47.212;7.542;2024-03-02T13:12:18;0.80;;;0.80;;
4754;SDS011;2391;47.212;7.542;2024-03-02T13:14:47;1.63;;;1.13;;
4754;SDS011;2391;47.212;7.542;2024-03-02T13:17:19;0.67;;;0.67;;
4754;SDS011;2391;47.212;7.542;2024-03-02T13:22:23;0.50;;;0.50;;
4754;SDS011;2391;47.212;7.542;2024-03-02T13:24:50;0.60;;;0.40;;
4754;SDS011;2391;47.212;7.542;2024-03-02T13:27:17;1.47;;;0.50;;
4754;SDS011;2391;47.212;7.542;2024-03-02T13:29:49;0.50;;;0.50;;
4754;SDS011;2391;47.212;7.542;2024-03-02T13:32:15;0.60;;;0.60;;
4754;SDS011;2391;47.212;7.542;2024-03-02T13:34:41;0.70;;;0.70;;
4754;SDS011;2391;47.212;7.542;2024-03-02T13:37:08;0.63;;;0.63;;
4754;SDS011;2391;47.212;7.542;2024-03-02T13:39:34;0.97;;;0.60;;
4754;SDS011;2391;47.212;7.542;2024-03-02T13:42:02;0.67;;;0.50;;
4754;SDS011;2391;47.212;7.542;2024-03-02T13:44:30;0.87;;;0.60;;
4754;SDS011;2391;47.212;7.542;2024-03-02T13:46:56;0.80;;;0.80;;
4754;SDS011;2391;47.212;7.542;2024-03-02T13:49:23;0.70;;;0.70;;
4754;SDS011;2391;47.212;7.542;2024-03-02T13:51:49;0.60;;;0.60;;
4754;SDS011;2391;47.212;7.542;2024-03-02T13:54:15;0.90;;;0.90;;
4754;SDS011;2391;47.212;7.542;2024-03-02T13:56:41;1.47;;;1.20;;
4754;SDS011;2391;47.212;7.542;2024-03-02T13:59:07;1.00;;;1.00;;
4754;SDS011;2391;47.212;7.542;2024-03-02T14:01:34;1.33;;;1.30;;
4754;SDS011;2391;47.212;7.542;2024-03-02T14:04:00;1.53;;;1.40;;
4754;SDS011;2391;47.212;7.542;2024-03-02T14:06:26;1.40;;;1.30;;
4754;SDS011;2391;47.212;7.542;2024-03-02T14:08:52;1.60;;;1.50;;
4754;SDS011;2391;47.212;7.542;2024-03-02T14:11:18;2.50;;;1.30;;
4754;SDS011;2391;47.212;7.542;2024-03-02T14:13:45;1.70;;;1.60;;
4754;SDS011;2391;47.212;7.542;2024-03-02T14:16:15;2.07;;;1.97;;
4754;SDS011;2391;47.212;7.542;2024-03-02T14:18:41;1.57;;;1.47;;
4754;SDS011;2391;47.212;7.542;2024-03-02T14:21:07;3.07;;;1.97;;
4754;SDS011;2391;47.212;7.542;2024-03-02T14:23:33;1.70;;;1.60;;
4754;SDS011;2391;47.212;7.542;2024-03-02T14:25:59;1.77;;;1.67;;
4754;SDS011;2391;47.212;7.542;2024-03-02T14:28:25;1.90;;;1.80;;
4754;SDS011;2391;47.212;7.542;2024-03-02T14:30:51;1.93;;;1.83;;
4754;SDS011;2391;47.212;7.542;2024-03-02T14:33:17;1.90;;;1.80;;
4754;SDS011;2391;47.212;7.542;2024-03-02T14:35:44;2.07;;;1.97;;
4754;SDS011;2391;47.212;7.542;2024-03-02T14:38:11;2.83;;;1.90;;
4754;SDS011;2391;47.212;7.542;2024-03-02T14:40:38;2.40;;;2.20;;
4754;SDS011;2391;47.212;7.542;2024-03-02T14:43:04;1.80;;;1.70;;
4754;SDS011;2391;47.212;7.542;2024-03-02T14:45:29;2.90;;;2.03;;
4754;SDS011;2391;47.212;7.542;2024-03-02T14:47:55;1.53;;;1.43;;
4754;SDS011;2391;47.212;7.542;2024-03-02T14:50:24;2.20;;;1.77;;
4754;SDS011;2391;47.212;7.542;2024-03-02T14:52:50;2.03;;;1.93;;
4754;SDS011;2391;47.212;7.542;2024-03-02T14:55:16;2.37;;;1.83;;
4754;SDS011;2391;47.212;7.542;2024-03-02T14:57:41;2.40;;;2.20;;
4754;SDS011;2391;47.212;7.542;2024-03-02T15:00:08;2.07;;;1.97;;
4754;SDS011;2391;47.212;7.542;2024-03-02T15:02:41;2.40;;;2.20;;
4754;SDS011;2391;47.212;7.542;2024-03-02T15:05:04;2.60;;;2.40;;
4754;SDS011;2391;47.212;7.542;2024-03-02T15:07:33;2.47;;;2.30;;
4754;SDS011;2391;47.212;7.542;2024-03-02T15:09:59;2.43;;;2.33;;
4754;SDS011;2391;47.212;7.542;2024-03-02T15:12:25;3.50;;;2.60;;
4754;SDS011;2391;47.212;7.542;2024-03-02T15:14:51;2.90;;;2.60;;
4754;SDS011;2391;47.212;7.542;2024-03-02T15:17:17;1.90;;;1.73;;
4754;SDS011;2391;47.212;7.542;2024-03-02T15:19:43;2.43;;;2.23;;